Time;durP1;ratioP1;P1;durP2;ratioP2;P2;SDS_P1;SDS_P2;PMS_P1;PMS_P2;Temp;Humidity;BMP_temperature;BMP_pressure;BME280_temperature;BME280_humidity;BME280_pressure;Samples;Min_cycle;Max_cycle;Signal;HPM_P1;HPM_P2
2021/12/18 00:02:19;;;;;;;5.25;3.63;;;9.20;99.90;;;;;;5091347;28;20232;-62
2021/12/18 00:04:46;;;;;;;5.25;4.28;;;9.20;99.90;;;;;;5092211;28;20563;-62
2021/12/18 00:07:13;;;;;;;4.35;3.70;;;9.20;99.90;;;;;;5091971;28;20234;-63
2021/12/18 00:09:40;;;;;;;4.53;4.03;;;9.20;99.90;;;;;;5091265;28;20224;-62
2021/12/18 00:12:11;;;;;;;9.68;4.95;;;9.20;99.90;;;;;;5091691;28;20219;-62
2021/12/18 00:14:37;;;;;;;4.88;3.88;;;9.20;99.90;;;;;;5091804;28;20216;-63
2021/12/18 00:17:05;;;;;;;4.38;3.97;;;9.20;99.90;;;;;;5092019;28;20586;-62
2021/12/18 00:19:32;;;;;;;4.95;3.95;;;9.20;99.90;;;;;;5089139;28;20560;-62
2021/12/18 00:22:00;;;;;;;5.97;4.97;;;9.20;99.90;;;;;;5090980;28;20223;-62
2021/12/18 00:24:27;;;;;;;5.95;4.88;;;9.20;99.90;;;;;;5089436;28;20223;-63
2021/12/18 00:26:54;;;;;;;15.52;11.43;;;9.30;99.90;;;;;;5089949;28;20238;-61
2021/12/18 00:29:22;;;;;;;6.25;5.10;;;9.30;99.90;;;;;;5089355;28;20234;-63
2021/12/18 00:31:51;;;;;;;8.35;6.72;;;9.20;99.90;;;;;;5089188;28;20223;-63
2021/12/18 00:34:17;;;;;;;8.25;6.60;;;9.30;99.90;;;;;;5079286;28;20215;-63
2021/12/18 00:36:44;;;;;;;8.48;5.80;;;9.30;99.90;;;;;;5089977;28;20223;-63
2021/12/18 00:39:12;;;;;;;8.73;6.30;;;9.20;99.90;;;;;;5092047;28;20224;-63
2021/12/18 00:41:59;;;;;;;5.05;4.30;;;9.30;99.90;;;;;;5090999;28;20294;-63
2021/12/18 00:44:27;;;;;;;4.97;3.72;;;9.30;99.90;;;;;;5091304;28;20311;-63
2021/12/18 00:46:54;;;;;;;8.38;4.10;;;9.30;99.90;;;;;;5086205;28;20220;-63
2021/12/18 00:49:22;;;;;;;4.82;4.28;;;9.20;99.90;;;;;;5074638;28;20235;-63
2021/12/18 00:51:49;;;;;;;6.43;5.45;;;9.20;99.90;;;;;;5092069;28;20219;-63
2021/12/18 00:54:16;;;;;;;4.13;3.75;;;9.20;99.90;;;;;;5095158;28;20306;-63
2021/12/18 00:56:43;;;;;;;4.70;3.95;;;9.20;99.90;;;;;;5095073;28;20241;-63
2021/12/18 00:59:10;;;;;;;3.45;3.05;;;9.30;99.90;;;;;;5095376;28;20306;-63
2021/12/18 01:01:38;;;;;;;4.13;3.72;;;9.30;99.90;;;;;;5094747;28;20307;-63
2021/12/18 01:04:05;;;;;;;3.95;3.55;;;9.30;99.90;;;;;;5094842;28;20223;-63
2021/12/18 01:06:32;;;;;;;5.03;3.25;;;9.30;99.90;;;;;;5094924;28;20682;-63
2021/12/18 01:08:59;;;;;;;3.45;3.15;;;9.30;99.90;;;;;;5094295;28;20604;-63
2021/12/18 01:11:39;;;;;;;4.38;3.97;;;9.30;99.90;;;;;;5094930;28;20729;-63
2021/12/18 01:14:29;;;;;;;6.25;4.32;;;9.30;99.90;;;;;;5094798;28;20227;-63
2021/12/18 01:25:13;;;;;;;3.80;3.50;;;9.30;99.90;;;;;;5083920;28;20271;-63
2021/12/18 01:27:40;;;;;;;3.50;3.20;;;9.30;99.90;;;;;;5091252;28;20295;-63
2021/12/18 01:30:10;;;;;;;3.10;2.80;;;9.30;99.90;;;;;;5094406;28;20310;-63
2021/12/18 01:32:38;;;;;;;4.93;4.43;;;9.30;99.90;;;;;;5091121;28;20219;-63
2021/12/18 01:35:07;;;;;;;4.28;3.35;;;9.30;99.90;;;;;;5094437;28;20231;-63
2021/12/18 01:37:33;;;;;;;3.90;3.60;;;9.30;99.90;;;;;;5093307;28;20553;-63
2021/12/18 01:40:00;;;;;;;6.47;3.45;;;9.30;99.90;;;;;;5094223;28;20227;-63
2021/12/18 01:45:16;;;;;;;12.85;10.75;;;9.30;99.90;;;;;;5093554;28;20616;-63
2021/12/18 01:53:13;;;;;;;3.60;3.17;;;9.30;99.90;;;;;;5095844;28;20226;-63
2021/12/18 01:55:44;;;;;;;4.68;3.17;;;9.30;99.90;;;;;;5093504;28;20234;-63
2021/12/18 01:58:11;;;;;;;3.80;3.33;;;9.30;99.90;;;;;;5088151;28;20223;-63
2021/12/18 02:00:40;;;;;;;3.30;2.80;;;9.30;99.90;;;;;;5091894;28;20558;-63
2021/12/18 02:03:09;;;;;;;3.58;2.92;;;9.30;99.90;;;;;;5089977;28;20223;-63
2021/12/18 02:05:37;;;;;;;3.00;2.70;;;9.30;99.90;;;;;;5093748;28;20691;-63
2021/12/18 02:08:05;;;;;;;4.38;3.20;;;9.30;99.90;;;;;;5093712;28;20237;-63
2021/12/18 02:10:43;;;;;;;4.00;3.60;;;9.30;99.90;;;;;;5092858;28;20289;-63
2021/12/18 02:13:22;;;;;;;3.53;2.75;;;9.20;99.90;;;;;;5092719;28;20709;-62
2021/12/18 02:21:23;;;;;;;3.75;2.92;;;9.20;99.90;;;;;;5093330;28;20322;-63
2021/12/18 02:23:51;;;;;;;4.38;3.40;;;9.20;99.90;;;;;;5088594;28;21310;-62
2021/12/18 02:26:18;;;;;;;4.47;3.50;;;9.20;99.90;;;;;;5092820;28;20273;-62
2021/12/18 02:28:48;;;;;;;3.35;2.97;;;9.30;99.90;;;;;;5092485;28;20237;-62
2021/12/18 02:31:15;;;;;;;3.90;3.50;;;9.20;99.90;;;;;;5082608;28;20297;-62
2021/12/18 02:33:43;;;;;;;3.80;3.50;;;9.30;99.90;;;;;;5086812;28;20258;-62
2021/12/18 02:36:12;;;;;;;4.55;3.92;;;9.30;99.90;;;;;;5092798;28;20227;-63
2021/12/18 02:38:59;;;;;;;3.85;3.10;;;9.30;99.90;;;;;;5090190;28;20239;-63
2021/12/18 02:41:32;;;;;;;4.15;3.78;;;9.30;99.90;;;;;;5092588;28;20574;-63
2021/12/18 02:44:00;;;;;;;2.88;2.65;;;9.20;99.90;;;;;;5081435;28;20319;-62
2021/12/18 02:46:27;;;;;;;4.25;3.20;;;9.20;99.90;;;;;;5093017;28;20553;-62
2021/12/18 02:48:55;;;;;;;4.47;3.67;;;9.20;99.90;;;;;;5084552;28;20232;-63
2021/12/18 02:51:23;;;;;;;5.60;5.10;;;9.20;99.90;;;;;;5063584;28;20236;-63
2021/12/18 02:53:54;;;;;;;4.15;3.75;;;9.20;99.90;;;;;;5072699;28;20216;-63
2021/12/18 02:56:23;;;;;;;5.45;3.83;;;9.20;99.90;;;;;;5072454;28;20577;-63
2021/12/18 02:58:52;;;;;;;2.92;2.67;;;9.30;99.90;;;;;;5071812;28;20239;-63
2021/12/18 03:01:21;;;;;;;4.43;3.00;;;9.20;99.90;;;;;;5072987;28;20242;-62
2021/12/18 03:03:49;;;;;;;3.30;3.05;;;9.30;99.90;;;;;;5072159;28;20224;-63
2021/12/18 03:06:24;;;;;;;3.78;3.38;;;9.30;99.90;;;;;;5064431;28;20228;-63
2021/12/18 03:09:10;;;;;;;3.95;3.17;;;9.30;99.90;;;;;;5069120;28;20223;-63
2021/12/18 03:20:44;;;;;;;5.13;3.75;;;9.30;99.90;;;;;;5071856;28;20688;-62
2021/12/18 03:25:38;;;;;;;4.65;4.15;;;9.30;99.90;;;;;;5051663;28;20669;-62
2021/12/18 03:28:06;;;;;;;4.22;3.83;;;9.30;99.90;;;;;;5072160;28;20243;-62
2021/12/18 03:30:33;;;;;;;3.65;3.25;;;9.30;99.90;;;;;;5072212;28;20689;-62
2021/12/18 03:33:01;;;;;;;3.65;3.28;;;9.30;99.90;;;;;;5069041;28;20226;-62
2021/12/18 03:35:28;;;;;;;3.20;2.90;;;9.30;99.90;;;;;;5072327;28;20224;-62
2021/12/18 03:37:55;;;;;;;7.88;5.63;;;9.40;99.90;;;;;;5071427;28;20224;-62
2021/12/18 03:40:24;;;;;;;5.10;4.40;;;9.30;99.90;;;;;;5070429;28;20224;-63
2021/12/18 03:42:52;;;;;;;5.00;4.03;;;9.30;99.90;;;;;;5071227;28;20234;-63
2021/12/18 03:45:20;;;;;;;4.45;4.05;;;9.30;99.90;;;;;;5072006;28;20220;-62
2021/12/18 03:47:49;;;;;;;4.10;3.70;;;9.30;99.90;;;;;;5071805;28;20224;-60
2021/12/18 03:50:16;;;;;;;5.35;4.00;;;9.30;99.90;;;;;;5091228;28;20530;-62
2021/12/18 03:52:43;;;;;;;5.10;4.13;;;9.30;99.90;;;;;;5090989;28;20219;-63
2021/12/18 03:55:10;;;;;;;4.25;3.28;;;9.30;99.90;;;;;;5091721;28;20219;-62
2021/12/18 03:57:36;;;;;;;5.10;3.40;;;9.30;99.90;;;;;;5092313;28;20233;-62
2021/12/18 04:00:07;;;;;;;3.30;3.00;;;9.30;99.90;;;;;;5091633;28;20408;-63
2021/12/18 04:02:34;;;;;;;3.63;3.17;;;9.30;99.90;;;;;;5092258;28;20227;-62
2021/12/18 04:05:01;;;;;;;5.05;4.28;;;9.30;99.90;;;;;;5091664;28;20229;-64
2021/12/18 04:07:28;;;;;;;6.15;4.85;;;9.30;99.90;;;;;;5092250;28;20226;-63
2021/12/18 04:09:55;;;;;;;6.22;5.03;;;9.30;99.90;;;;;;5091362;28;20535;-63
2021/12/18 04:12:22;;;;;;;6.30;4.20;;;9.30;99.90;;;;;;5092230;28;20219;-64
2021/12/18 04:14:49;;;;;;;5.97;4.55;;;9.30;99.90;;;;;;5091610;28;20217;-63
2021/12/18 04:17:17;;;;;;;5.03;4.45;;;9.30;99.90;;;;;;5092278;28;20543;-63
2021/12/18 04:19:44;;;;;;;5.78;4.53;;;9.30;99.90;;;;;;5091617;28;20224;-63
2021/12/18 04:22:11;;;;;;;4.55;3.92;;;9.30;99.90;;;;;;5087859;28;20219;-64
2021/12/18 04:24:37;;;;;;;4.03;3.35;;;9.20;99.90;;;;;;5083695;28;20226;-63
2021/12/18 04:27:04;;;;;;;5.90;4.40;;;9.20;99.90;;;;;;5094003;28;20220;-63
2021/12/18 04:29:31;;;;;;;5.32;4.47;;;9.20;99.90;;;;;;5095988;28;20819;-63
2021/12/18 04:31:58;;;;;;;5.03;3.80;;;9.20;99.90;;;;;;5094956;28;20248;-63
2021/12/18 04:34:26;;;;;;;4.43;4.03;;;9.20;99.90;;;;;;5095838;28;20223;-63
2021/12/18 04:36:53;;;;;;;5.13;4.47;;;9.20;99.90;;;;;;5095280;28;20681;-63
2021/12/18 04:39:20;;;;;;;4.72;3.90;;;9.20;99.90;;;;;;5095822;28;20223;-63
2021/12/18 04:41:50;;;;;;;6.13;4.38;;;9.30;99.90;;;;;;5093297;28;20215;-63
2021/12/18 04:44:18;;;;;;;4.57;4.13;;;9.30;99.90;;;;;;5095588;28;20219;-63
2021/12/18 04:46:46;;;;;;;4.65;4.10;;;9.20;99.90;;;;;;5095490;28;20234;-63
2021/12/18 04:49:13;;;;;;;3.60;3.30;;;9.20;99.90;;;;;;5094853;28;22216;-63
2021/12/18 04:51:41;;;;;;;6.05;4.20;;;9.20;99.90;;;;;;5094968;28;20627;-64
2021/12/18 04:54:08;;;;;;;5.00;3.90;;;9.20;99.90;;;;;;5095104;28;20223;-63
2021/12/18 04:56:35;;;;;;;3.70;3.40;;;9.20;99.90;;;;;;5095117;28;20234;-63
2021/12/18 04:59:02;;;;;;;3.95;3.55;;;9.30;99.90;;;;;;5094643;28;20234;-64
2021/12/18 05:01:29;;;;;;;4.38;3.72;;;9.30;99.90;;;;;;5093636;28;20235;-63
2021/12/18 05:03:56;;;;;;;4.45;3.38;;;9.30;99.90;;;;;;5093473;28;20230;-63
2021/12/18 05:06:23;;;;;;;3.60;3.00;;;9.30;99.90;;;;;;5093539;28;20687;-63
2021/12/18 05:08:51;;;;;;;5.95;5.07;;;9.20;99.90;;;;;;5086314;28;20224;-62
2021/12/18 05:11:18;;;;;;;4.13;3.72;;;9.20;99.90;;;;;;5091113;28;20235;-63
2021/12/18 05:13:45;;;;;;;4.57;4.05;;;9.10;99.90;;;;;;5093796;28;20219;-63
2021/12/18 05:16:11;;;;;;;8.70;5.50;;;9.20;99.90;;;;;;5094641;28;20229;-63
2021/12/18 05:18:38;;;;;;;4.38;3.55;;;9.20;99.90;;;;;;5095206;28;20223;-63
2021/12/18 05:21:05;;;;;;;4.20;3.47;;;9.10;99.90;;;;;;5094751;28;20234;-63
2021/12/18 05:23:32;;;;;;;4.38;3.30;;;9.10;99.90;;;;;;5095095;28;20219;-63
2021/12/18 05:26:00;;;;;;;10.90;9.32;;;9.10;99.90;;;;;;5094753;28;20294;-63
2021/12/18 05:28:27;;;;;;;4.53;4.10;;;9.10;99.90;;;;;;5095359;28;20603;-62
2021/12/18 05:30:54;;;;;;;4.15;3.75;;;9.10;99.90;;;;;;5094806;28;20234;-63
2021/12/18 05:33:21;;;;;;;3.70;3.08;;;9.20;99.90;;;;;;5094593;28;20219;-63
2021/12/18 05:35:48;;;;;;;3.92;3.53;;;9.20;99.90;;;;;;5082260;28;20621;-63
2021/12/18 05:38:14;;;;;;;3.78;3.47;;;9.20;99.90;;;;;;5093612;28;20237;-62
2021/12/18 05:40:41;;;;;;;6.18;5.07;;;9.20;99.90;;;;;;5094215;28;20241;-62
2021/12/18 05:43:10;;;;;;;8.45;5.20;;;9.20;99.90;;;;;;5091157;28;20215;-62
2021/12/18 05:45:37;;;;;;;3.22;2.92;;;9.20;99.90;;;;;;5081272;28;20215;-62
2021/12/18 05:48:05;;;;;;;5.03;4.25;;;9.20;99.90;;;;;;5093488;28;20219;-63
2021/12/18 05:50:33;;;;;;;13.80;7.07;;;9.20;99.90;;;;;;5094932;28;20223;-63
2021/12/18 05:53:00;;;;;;;3.72;3.42;;;9.10;99.90;;;;;;5094080;28;20227;-63
2021/12/18 05:55:29;;;;;;;2.90;2.47;;;9.10;99.90;;;;;;5094563;28;20242;-63
2021/12/18 05:57:56;;;;;;;2.78;2.58;;;9.10;99.90;;;;;;5094429;28;20293;-64
2021/12/18 06:00:25;;;;;;;4.22;3.83;;;9.10;99.90;;;;;;5092389;28;20235;-63
2021/12/18 06:02:51;;;;;;;4.88;4.38;;;9.10;99.90;;;;;;5094146;28;20226;-64
2021/12/18 06:05:18;;;;;;;3.80;3.45;;;9.10;99.90;;;;;;5093678;28;20226;-64
2021/12/18 06:07:55;;;;;;;4.40;4.00;;;9.10;99.90;;;;;;5094099;28;20219;-62
2021/12/18 06:10:23;;;;;;;3.08;2.75;;;9.10;99.90;;;;;;5093899;28;20622;-63
2021/12/18 06:12:50;;;;;;;3.10;2.80;;;9.20;99.90;;;;;;5093956;28;20223;-64
2021/12/18 06:15:17;;;;;;;2.90;2.60;;;9.20;99.90;;;;;;5093282;28;20239;-64
2021/12/18 06:17:45;;;;;;;5.28;3.50;;;9.20;99.90;;;;;;5093963;28;20266;-63
2021/12/18 06:20:12;;;;;;;2.83;2.63;;;9.20;99.90;;;;;;5093658;28;20251;-64
2021/12/18 06:22:39;;;;;;;3.28;2.90;;;9.20;99.90;;;;;;5090830;28;20215;-64
2021/12/18 06:25:10;;;;;;;4.20;3.88;;;9.20;99.90;;;;;;5092796;28;20250;-63
2021/12/18 06:27:37;;;;;;;29.98;23.20;;;9.20;99.90;;;;;;5093756;28;20681;-63
2021/12/18 06:30:05;;;;;;;8.50;7.07;;;9.20;99.90;;;;;;5093297;28;20674;-64
2021/12/18 06:32:32;;;;;;;3.20;2.90;;;9.20;99.90;;;;;;5093394;28;20230;-63
2021/12/18 06:35:00;;;;;;;3.70;2.95;;;9.20;99.90;;;;;;5082033;28;20235;-62
2021/12/18 06:37:27;;;;;;;2.92;2.65;;;9.20;99.90;;;;;;5080128;28;21280;-63
2021/12/18 06:39:55;;;;;;;3.80;3.40;;;9.20;99.90;;;;;;5093580;28;20226;-63
2021/12/18 06:42:21;;;;;;;3.42;2.58;;;9.20;99.90;;;;;;5093073;28;20234;-63
2021/12/18 06:44:48;;;;;;;4.30;3.90;;;9.20;99.90;;;;;;5093516;28;20221;-62
2021/12/18 06:47:15;;;;;;;4.30;3.90;;;9.20;99.90;;;;;;5093339;28;20341;-64
2021/12/18 06:49:42;;;;;;;5.60;4.65;;;9.20;99.90;;;;;;5092396;28;20568;-64
2021/12/18 06:52:10;;;;;;;7.18;5.65;;;9.20;99.90;;;;;;5091984;28;20250;-64
2021/12/18 06:54:37;;;;;;;8.45;6.45;;;9.20;99.90;;;;;;5092305;28;20219;-64
2021/12/18 06:57:04;;;;;;;29.35;20.25;;;9.20;99.90;;;;;;5089497;28;20223;-62
2021/12/18 06:59:31;;;;;;;8.95;7.30;;;9.20;99.90;;;;;;5090995;28;20234;-62
2021/12/18 07:01:58;;;;;;;4.43;3.42;;;9.20;99.90;;;;;;5092184;28;20229;-62
2021/12/18 07:04:25;;;;;;;2.65;2.45;;;9.20;99.90;;;;;;5091865;28;20223;-62
2021/12/18 07:06:54;;;;;;;6.70;5.70;;;9.30;99.90;;;;;;5091175;28;20223;-63
2021/12/18 07:09:22;;;;;;;3.63;3.03;;;9.30;99.90;;;;;;5090336;28;20308;-62
2021/12/18 07:11:49;;;;;;;4.00;3.60;;;9.30;99.90;;;;;;5091155;28;20218;-62
2021/12/18 07:14:16;;;;;;;3.92;3.53;;;9.30;99.90;;;;;;5091101;28;20223;-63
2021/12/18 07:16:43;;;;;;;3.42;2.67;;;9.30;99.90;;;;;;5091274;28;20215;-63
2021/12/18 07:19:09;;;;;;;4.45;4.07;;;9.30;99.90;;;;;;5090641;28;20237;-62
2021/12/18 07:21:36;;;;;;;3.80;3.50;;;9.30;99.90;;;;;;5092820;28;20229;-62
2021/12/18 07:24:04;;;;;;;2.63;2.40;;;9.20;99.90;;;;;;5093106;28;20262;-62
2021/12/18 07:26:32;;;;;;;4.40;3.53;;;9.20;99.90;;;;;;5092481;28;20562;-63
2021/12/18 07:28:59;;;;;;;3.58;2.78;;;9.20;99.90;;;;;;5093193;28;20311;-63
2021/12/18 07:31:26;;;;;;;2.85;2.60;;;9.20;99.90;;;;;;5091140;28;25258;-63
2021/12/18 07:33:53;;;;;;;2.70;2.50;;;9.30;99.90;;;;;;5092844;28;20880;-63
2021/12/18 07:36:20;;;;;;;2.88;2.58;;;9.30;99.90;;;;;;5092187;28;20219;-63
2021/12/18 07:38:47;;;;;;;3.45;2.85;;;9.30;99.90;;;;;;5081353;28;20224;-63
2021/12/18 07:41:14;;;;;;;2.88;2.45;;;9.30;99.90;;;;;;5072059;28;20234;-63
2021/12/18 07:43:42;;;;;;;2.40;2.20;;;9.30;99.90;;;;;;5082892;28;20234;-64
2021/12/18 07:46:09;;;;;;;2.80;2.53;;;9.30;99.90;;;;;;5087627;28;20307;-63
2021/12/18 07:48:36;;;;;;;3.10;2.75;;;9.30;99.90;;;;;;5072271;28;20234;-63
2021/12/18 07:51:02;;;;;;;3.45;3.15;;;9.30;99.90;;;;;;5072428;28;20238;-63
2021/12/18 07:53:29;;;;;;;4.45;3.50;;;9.30;99.90;;;;;;5071903;28;20220;-64
2021/12/18 07:55:56;;;;;;;3.17;2.97;;;9.30;99.90;;;;;;5072275;28;20224;-64
2021/12/18 07:58:24;;;;;;;3.35;3.05;;;9.30;99.90;;;;;;5072045;28;20227;-64
2021/12/18 08:00:53;;;;;;;5.60;4.22;;;9.30;99.90;;;;;;5071941;28;20224;-63
2021/12/18 08:03:19;;;;;;;4.60;3.67;;;9.30;99.90;;;;;;5071879;28;20234;-64
2021/12/18 08:05:46;;;;;;;4.18;3.78;;;9.30;99.90;;;;;;5087147;28;20219;-63
2021/12/18 08:08:13;;;;;;;4.57;3.85;;;9.30;99.90;;;;;;5091878;28;20719;-63
2021/12/18 08:10:40;;;;;;;4.40;3.45;;;9.30;99.90;;;;;;5092470;28;20229;-63
2021/12/18 08:13:07;;;;;;;5.85;3.92;;;9.30;99.90;;;;;;5092364;28;20669;-63
2021/12/18 08:15:34;;;;;;;10.75;8.05;;;9.30;99.90;;;;;;5091992;28;20223;-64
2021/12/18 08:18:07;;;;;;;4.22;3.83;;;9.30;99.90;;;;;;5092321;28;20226;-64
2021/12/18 08:20:34;;;;;;;4.05;3.72;;;9.30;99.90;;;;;;5091987;28;20253;-63
2021/12/18 08:23:01;;;;;;;6.13;5.30;;;9.30;99.90;;;;;;5092157;28;20231;-63
2021/12/18 08:25:31;;;;;;;9.00;6.60;;;9.30;99.90;;;;;;5091872;28;20562;-63
2021/12/18 08:27:59;;;;;;;7.03;6.10;;;9.30;99.90;;;;;;5092456;28;20220;-63
2021/12/18 08:30:27;;;;;;;7.68;5.15;;;9.30;99.90;;;;;;5091750;28;20805;-63
2021/12/18 08:32:54;;;;;;;9.13;6.90;;;9.40;99.90;;;;;;5092200;28;20593;-64
2021/12/18 08:35:25;;;;;;;4.88;3.58;;;9.30;99.90;;;;;;5091425;28;20219;-63
2021/12/18 08:37:52;;;;;;;4.20;3.80;;;9.30;99.90;;;;;;5092233;28;20245;-63
2021/12/18 08:40:19;;;;;;;4.13;3.72;;;9.30;99.90;;;;;;5091311;28;20231;-63
2021/12/18 08:42:46;;;;;;;6.28;4.15;;;9.30;99.90;;;;;;5092471;28;20631;-63
2021/12/18 08:45:13;;;;;;;4.60;3.15;;;9.20;99.90;;;;;;5091825;28;20737;-63
2021/12/18 08:47:40;;;;;;;4.05;3.45;;;9.30;99.90;;;;;;5092134;28;20565;-63
2021/12/18 08:50:10;;;;;;;8.05;5.35;;;9.20;99.90;;;;;;5092058;28;20306;-63
2021/12/18 08:52:38;;;;;;;5.90;3.88;;;9.10;99.90;;;;;;5091814;28;21074;-63
2021/12/18 08:55:06;;;;;;;4.20;3.35;;;9.10;99.90;;;;;;5092115;28;20357;-64
2021/12/18 08:57:33;;;;;;;3.22;2.67;;;9.10;99.90;;;;;;5091663;28;20233;-63
2021/12/18 09:00:00;;;;;;;6.82;4.97;;;9.10;99.90;;;;;;5091779;28;20228;-63
2021/12/18 09:02:27;;;;;;;4.05;3.67;;;9.00;99.90;;;;;;5091400;28;20567;-63
2021/12/18 09:04:53;;;;;;;4.57;4.03;;;9.00;99.90;;;;;;5092054;28;20253;-63
2021/12/18 09:07:20;;;;;;;5.72;3.55;;;9.00;99.90;;;;;;5091609;28;20233;-63
2021/12/18 09:09:48;;;;;;;5.75;4.45;;;9.00;99.90;;;;;;5091916;28;20235;-63
2021/12/18 09:12:15;;;;;;;3.42;3.08;;;9.00;99.90;;;;;;5091547;28;20224;-64
2021/12/18 09:14:42;;;;;;;5.68;3.88;;;9.00;99.90;;;;;;5095225;28;20223;-63
2021/12/18 09:17:09;;;;;;;3.88;3.17;;;9.00;99.90;;;;;;5095482;28;20234;-63
2021/12/18 09:19:36;;;;;;;4.65;2.60;;;9.10;99.90;;;;;;5094708;28;20712;-63
2021/12/18 09:22:06;;;;;;;3.55;3.13;;;9.20;99.90;;;;;;5095276;28;20234;-63
2021/12/18 09:24:34;;;;;;;3.97;2.97;;;9.20;99.90;;;;;;5094903;28;20304;-62
2021/12/18 09:27:03;;;;;;;3.67;3.35;;;9.20;99.90;;;;;;5095092;28;20227;-63
2021/12/18 09:29:30;;;;;;;5.07;3.22;;;9.20;99.90;;;;;;5094689;28;20238;-63
2021/12/18 09:31:57;;;;;;;3.30;2.97;;;9.30;99.90;;;;;;5095218;28;20223;-63
2021/12/18 09:34:26;;;;;;;5.50;3.35;;;9.30;99.90;;;;;;5094862;28;20227;-63
2021/12/18 09:36:54;;;;;;;4.47;3.65;;;9.30;99.90;;;;;;5095015;28;20235;-63
2021/12/18 09:39:21;;;;;;;4.43;4.03;;;9.30;99.90;;;;;;5094806;28;20224;-63
2021/12/18 09:41:50;;;;;;;5.20;4.70;;;9.30;99.90;;;;;;5094806;28;20695;-63
2021/12/18 09:44:23;;;;;;;8.35;4.45;;;9.40;99.90;;;;;;5094479;28;20229;-64
2021/12/18 09:46:50;;;;;;;4.97;4.30;;;9.40;99.90;;;;;;5094757;28;20223;-63
2021/12/18 09:49:17;;;;;;;4.90;4.05;;;9.40;99.90;;;;;;5094076;28;20237;-63
2021/12/18 09:51:44;;;;;;;4.65;4.25;;;9.30;99.90;;;;;;5094861;28;20230;-63
2021/12/18 09:54:12;;;;;;;6.03;5.15;;;9.40;99.90;;;;;;5094965;28;20227;-64
2021/12/18 09:56:39;;;;;;;7.43;5.30;;;9.40;99.90;;;;;;5094464;28;20215;-64
2021/12/18 09:59:06;;;;;;;5.90;4.40;;;9.40;99.90;;;;;;5094614;28;20282;-63
2021/12/18 10:01:36;;;;;;;9.20;7.78;;;9.40;99.90;;;;;;5094339;28;20247;-63
2021/12/18 10:04:05;;;;;;;9.85;7.25;;;9.40;99.90;;;;;;5094719;28;20234;-63
2021/12/18 10:06:35;;;;;;;11.15;7.13;;;9.40;99.90;;;;;;5094065;28;20230;-63
2021/12/18 10:09:04;;;;;;;12.95;8.30;;;9.40;99.90;;;;;;5094775;28;20223;-63
2021/12/18 10:11:31;;;;;;;7.88;6.18;;;9.40;99.90;;;;;;5094031;28;20687;-63
2021/12/18 10:14:03;;;;;;;5.22;4.70;;;9.40;99.90;;;;;;5094428;28;20567;-63
2021/12/18 10:16:31;;;;;;;5.13;4.55;;;9.40;99.90;;;;;;5093943;28;20223;-63
2021/12/18 10:19:00;;;;;;;5.47;4.95;;;9.40;99.90;;;;;;5094507;28;20556;-63
2021/12/18 10:21:29;;;;;;;4.88;4.38;;;9.50;99.90;;;;;;5093806;28;20238;-64
2021/12/18 10:24:14;;;;;;;4.55;4.15;;;9.50;99.90;;;;;;5094052;28;20234;-62
2021/12/18 10:26:44;;;;;;;6.55;5.05;;;9.50;99.90;;;;;;5093583;28;20228;-63
2021/12/18 10:29:26;;;;;;;8.18;4.47;;;9.50;99.90;;;;;;5094082;28;20273;-63
2021/12/18 10:31:52;;;;;;;6.78;5.70;;;9.50;99.90;;;;;;5093898;28;20962;-63
2021/12/18 10:34:23;;;;;;;5.95;5.00;;;9.50;99.90;;;;;;5094135;28;20231;-63
2021/12/18 10:37:25;;;;;;;6.90;5.80;;;9.60;99.90;;;;;;5093506;28;20237;-64
2021/12/18 10:40:01;;;;;;;5.57;4.30;;;9.60;99.90;;;;;;5011481;28;20225;-63
2021/12/18 10:42:29;;;;;;;7.53;4.28;;;9.60;99.90;;;;;;5012158;28;20240;-63
2021/12/18 10:45:15;;;;;;;5.43;4.38;;;9.60;99.90;;;;;;5054896;28;20234;-64
2021/12/18 10:47:54;;;;;;;3.38;3.00;;;9.60;99.90;;;;;;5091867;28;20310;-63
2021/12/18 10:50:28;;;;;;;4.53;3.42;;;9.70;99.90;;;;;;5091548;28;20527;-63
2021/12/18 10:52:57;;;;;;;3.70;3.35;;;9.70;99.90;;;;;;5090749;28;20219;-63
2021/12/18 10:55:32;;;;;;;3.80;3.50;;;9.70;99.90;;;;;;5091519;28;20241;-63
2021/12/18 10:57:59;;;;;;;3.00;2.65;;;9.70;99.90;;;;;;5091539;28;21417;-63
2021/12/18 11:00:41;;;;;;;5.07;3.22;;;9.70;99.90;;;;;;5091467;28;20228;-63
2021/12/18 11:03:35;;;;;;;3.67;2.92;;;9.70;99.90;;;;;;5092641;28;20215;-64
2021/12/18 11:06:10;;;;;;;3.53;3.22;;;9.70;99.90;;;;;;5092939;28;20302;-64
2021/12/18 11:08:55;;;;;;;3.55;2.92;;;9.70;99.90;;;;;;5093168;28;20221;-63
2021/12/18 11:14:08;;;;;;;5.05;3.63;;;9.80;99.90;;;;;;5093177;28;20234;-63
2021/12/18 11:16:38;;;;;;;7.60;4.88;;;9.80;99.90;;;;;;5093372;28;20219;-64
2021/12/18 11:19:06;;;;;;;4.35;3.95;;;9.80;99.90;;;;;;5092956;28;20247;-63
2021/12/18 11:21:35;;;;;;;5.45;4.45;;;9.80;99.90;;;;;;5092959;28;20736;-63
2021/12/18 11:24:05;;;;;;;9.30;6.38;;;9.90;99.90;;;;;;5093243;28;20238;-63
2021/12/18 11:26:36;;;;;;;6.38;5.60;;;9.80;99.90;;;;;;5092753;28;20231;-63
2021/12/18 11:29:04;;;;;;;5.45;4.30;;;9.80;99.90;;;;;;5092921;28;20454;-62
2021/12/18 11:31:32;;;;;;;3.90;3.00;;;9.80;99.90;;;;;;5092544;28;20677;-62
2021/12/18 11:34:01;;;;;;;3.45;2.70;;;9.90;99.90;;;;;;5093183;28;20229;-62
2021/12/18 11:36:28;;;;;;;4.85;3.97;;;9.90;99.90;;;;;;5077792;28;20232;-63
2021/12/18 11:38:56;;;;;;;6.82;4.40;;;9.80;99.90;;;;;;5072566;28;20564;-64
2021/12/18 11:41:24;;;;;;;4.28;3.03;;;9.80;99.90;;;;;;5072202;28;20230;-63
2021/12/18 11:43:51;;;;;;;4.03;3.35;;;9.70;99.90;;;;;;5072617;28;20621;-63
2021/12/18 11:46:30;;;;;;;4.20;2.67;;;9.80;99.90;;;;;;5076115;28;20215;-64
2021/12/18 11:48:59;;;;;;;2.33;2.13;;;9.80;99.90;;;;;;5081006;28;20666;-63
2021/12/18 11:51:27;;;;;;;4.47;2.83;;;9.80;99.90;;;;;;5085618;28;20227;-63
2021/12/18 11:53:53;;;;;;;3.28;2.95;;;9.80;99.90;;;;;;5092489;28;20219;-63
2021/12/18 11:56:23;;;;;;;4.10;2.80;;;9.80;99.90;;;;;;5091769;28;20223;-64
2021/12/18 11:58:51;;;;;;;3.38;2.88;;;9.80;99.90;;;;;;5092543;28;20231;-63
2021/12/18 12:01:24;;;;;;;2.63;2.40;;;9.80;99.90;;;;;;5091935;28;20223;-62
2021/12/18 12:03:58;;;;;;;6.13;5.15;;;9.80;99.90;;;;;;5092395;28;20219;-63
2021/12/18 12:06:30;;;;;;;5.85;3.97;;;9.80;99.90;;;;;;5092095;28;20215;-63
2021/12/18 12:09:26;;;;;;;4.63;4.20;;;9.80;99.90;;;;;;5092361;28;20243;-64
2021/12/18 12:11:58;;;;;;;6.53;5.30;;;9.80;99.90;;;;;;5080794;28;20565;-63
2021/12/18 12:14:27;;;;;;;3.17;2.58;;;9.80;99.90;;;;;;5092209;28;20229;-63
2021/12/18 12:17:06;;;;;;;8.88;7.30;;;9.90;99.90;;;;;;5091895;28;20215;-63
2021/12/18 12:19:56;;;;;;;2.97;2.47;;;9.90;99.90;;;;;;5092243;28;20234;-63
2021/12/18 12:22:34;;;;;;;4.25;2.58;;;10.00;99.90;;;;;;5091820;28;21032;-63
2021/12/18 12:25:03;;;;;;;4.57;3.22;;;10.00;99.90;;;;;;5092116;28;20237;-63
2021/12/18 12:27:34;;;;;;;5.75;3.85;;;10.00;99.90;;;;;;5092116;28;20233;-63
2021/12/18 12:30:04;;;;;;;7.70;5.13;;;10.10;99.90;;;;;;5091514;28;20246;-62
2021/12/18 12:32:32;;;;;;;5.78;4.50;;;10.00;99.90;;;;;;5092094;28;20568;-64
2021/12/18 12:35:01;;;;;;;5.97;4.95;;;10.10;99.90;;;;;;5089993;28;20568;-63
2021/12/18 12:37:34;;;;;;;5.50;3.67;;;10.10;99.90;;;;;;5090791;28;20223;-63
2021/12/18 12:40:06;;;;;;;4.30;3.20;;;10.20;99.90;;;;;;5091342;28;20238;-63
2021/12/18 12:42:35;;;;;;;4.07;3.35;;;10.20;99.90;;;;;;5079247;28;20721;-63
2021/12/18 12:45:08;;;;;;;5.97;4.65;;;10.10;99.90;;;;;;5091243;28;20224;-63
2021/12/18 12:47:36;;;;;;;5.00;4.22;;;10.20;99.90;;;;;;5091650;28;20224;-62
2021/12/18 12:50:27;;;;;;;14.63;10.48;;;10.10;99.90;;;;;;5095273;28;20232;-63
2021/12/18 12:52:56;;;;;;;7.32;5.15;;;10.10;99.90;;;;;;5083751;28;20219;-63
2021/12/18 12:55:25;;;;;;;15.23;10.27;;;10.20;99.90;;;;;;5087415;28;20220;-63
2021/12/18 12:57:56;;;;;;;7.78;5.78;;;10.20;99.90;;;;;;5095801;28;20229;-63
2021/12/18 13:00:51;;;;;;;3.85;3.22;;;10.20;99.90;;;;;;5094805;28;20234;-63
2021/12/18 13:03:25;;;;;;;4.78;3.42;;;10.30;99.90;;;;;;5095080;28;20538;-62
2021/12/18 13:06:12;;;;;;;2.85;2.28;;;10.30;99.90;;;;;;5095761;28;20234;-62
2021/12/18 13:08:41;;;;;;;3.20;2.70;;;10.30;99.90;;;;;;5095799;28;20575;-63
2021/12/18 13:11:15;;;;;;;3.35;3.00;;;10.30;99.90;;;;;;5095331;28;20221;-63
2021/12/18 13:13:43;;;;;;;4.63;3.28;;;10.30;99.90;;;;;;5084519;28;20298;-63
2021/12/18 13:16:13;;;;;;;2.03;1.83;;;10.30;99.90;;;;;;5095102;28;20658;-63
2021/12/18 13:18:42;;;;;;;3.00;2.60;;;10.40;99.90;;;;;;5095500;28;20705;-63
2021/12/18 13:21:12;;;;;;;3.10;2.33;;;10.40;99.90;;;;;;5094491;28;20234;-63
2021/12/18 13:23:42;;;;;;;2.97;2.70;;;10.40;99.90;;;;;;5095182;28;20607;-63
2021/12/18 13:26:12;;;;;;;2.80;2.60;;;10.40;99.90;;;;;;5094785;28;20562;-63
2021/12/18 13:28:49;;;;;;;2.40;1.88;;;10.40;99.90;;;;;;5095149;28;20234;-63
2021/12/18 13:31:17;;;;;;;3.78;3.35;;;10.40;99.90;;;;;;5094649;28;20253;-63
2021/12/18 13:33:44;;;;;;;4.15;3.15;;;10.30;99.90;;;;;;5095039;28;20221;-63
2021/12/18 13:36:11;;;;;;;4.03;3.55;;;10.30;99.90;;;;;;5086554;28;20223;-63
2021/12/18 13:38:40;;;;;;;3.88;3.35;;;10.30;99.90;;;;;;5094747;28;20230;-63
2021/12/18 13:41:11;;;;;;;4.07;3.28;;;10.40;99.90;;;;;;5094252;28;20228;-63
2021/12/18 13:43:39;;;;;;;4.88;2.70;;;10.40;99.90;;;;;;5094843;28;20220;-63